createdAt,value
2023-01-25T00:01:51.374Z,16.20
2023-01-25T00:04:20.610Z,16.20
2023-01-25T00:06:48.871Z,16.20
2023-01-25T00:09:17.708Z,16.20
2023-01-25T00:11:46.480Z,16.20
2023-01-25T00:14:16.917Z,16.20
2023-01-25T00:16:45.233Z,16.10
2023-01-25T00:19:13.594Z,16.20
2023-01-25T00:21:41.876Z,16.20
2023-01-25T00:24:11.819Z,16.20
2023-01-25T00:26:40.525Z,16.10
2023-01-25T00:29:08.925Z,16.20
2023-01-25T00:31:47.747Z,16.10
2023-01-25T00:34:45.401Z,16.10
2023-01-25T00:37:20.818Z,16.10
2023-01-25T00:39:49.059Z,16.10
2023-01-25T00:42:19.535Z,16.10
2023-01-25T00:44:48.097Z,16.10
2023-01-25T00:47:18.434Z,16.10
2023-01-25T00:49:47.304Z,16.10
2023-01-25T00:52:16.151Z,16.10
2023-01-25T00:54:44.387Z,16.10
2023-01-25T00:57:12.695Z,16.10
2023-01-25T00:59:44.434Z,16.10
2023-01-25T01:02:13.276Z,16.10
2023-01-25T01:04:43.047Z,16.10
2023-01-25T01:07:14.464Z,16.10
2023-01-25T01:09:42.945Z,16.10
2023-01-25T01:12:11.238Z,16.10
2023-01-25T01:14:39.654Z,16.10
2023-01-25T01:17:07.856Z,16.10
2023-01-25T01:19:36.263Z,16.10
2023-01-25T01:22:05.857Z,16.00
2023-01-25T01:24:34.162Z,16.10
2023-01-25T01:27:02.304Z,16.10
2023-01-25T01:29:30.553Z,16.00
2023-01-25T01:31:58.937Z,16.10
2023-01-25T01:34:27.724Z,16.10
2023-01-25T01:36:55.938Z,16.00
2023-01-25T01:39:25.539Z,16.00
2023-01-25T01:41:53.833Z,16.00
2023-01-25T01:44:43.085Z,16.00
2023-01-25T01:47:16.445Z,16.00
2023-01-25T01:49:51.160Z,16.10
2023-01-25T01:52:21.958Z,16.00
2023-01-25T01:54:57.130Z,16.00
2023-01-25T01:57:29.788Z,16.00
2023-01-25T02:00:03.907Z,16.00
2023-01-25T02:02:32.156Z,16.00
2023-01-25T02:05:05.364Z,16.10
2023-01-25T02:07:36.937Z,16.00
2023-01-25T02:10:09.115Z,16.00
2023-01-25T02:12:38.966Z,16.00
2023-01-25T02:15:08.720Z,16.00
2023-01-25T02:17:39.877Z,16.00
2023-01-25T02:20:15.336Z,16.00
2023-01-25T02:22:49.677Z,16.00
2023-01-25T02:25:19.537Z,16.00
2023-01-25T02:27:52.372Z,16.00
2023-01-25T02:30:20.674Z,16.00
2023-01-25T02:32:48.889Z,16.00
2023-01-25T02:35:21.671Z,16.00
2023-01-25T02:37:50.284Z,16.00
2023-01-25T02:40:20.469Z,16.00
2023-01-25T02:42:48.731Z,16.00
2023-01-25T02:45:23.752Z,16.00
2023-01-25T02:47:52.039Z,15.90
2023-01-25T02:50:20.442Z,16.00
2023-01-25T02:52:48.783Z,15.90
2023-01-25T02:55:17.073Z,16.00
2023-01-25T02:57:46.952Z,16.00
2023-01-25T03:00:15.672Z,15.90
2023-01-25T03:02:44.085Z,15.90
2023-01-25T03:05:12.273Z,16.00
2023-01-25T03:07:40.465Z,15.90
2023-01-25T03:10:09.619Z,16.00
2023-01-25T03:12:37.815Z,15.90
2023-01-25T03:15:09.628Z,15.90
2023-01-25T03:17:37.988Z,15.90
2023-01-25T03:20:06.892Z,15.90
2023-01-25T03:22:35.192Z,15.90
2023-01-25T03:25:03.416Z,15.90
2023-01-25T03:27:31.752Z,15.90
2023-01-25T03:30:00.109Z,15.90
2023-01-25T03:32:29.855Z,15.90
2023-01-25T03:34:59.128Z,15.90
2023-01-25T03:37:31.396Z,15.90
2023-01-25T03:39:59.822Z,15.90
2023-01-25T03:42:28.060Z,15.90
2023-01-25T03:44:56.171Z,15.90
2023-01-25T03:47:24.461Z,15.90
2023-01-25T03:49:54.123Z,15.90
2023-01-25T03:52:36.101Z,15.90
2023-01-25T03:55:04.480Z,15.90
2023-01-25T03:57:32.746Z,15.90
2023-01-25T04:00:00.972Z,15.90
2023-01-25T04:02:29.260Z,15.90
2023-01-25T04:04:58.947Z,15.90
2023-01-25T04:07:27.205Z,15.80
2023-01-25T04:09:55.430Z,15.90
2023-01-25T04:12:23.562Z,15.80
2023-01-25T04:14:51.793Z,15.90
2023-01-25T04:17:20.003Z,15.90
2023-01-25T04:19:48.256Z,15.80
2023-01-25T04:22:17.899Z,15.80
2023-01-25T04:24:46.253Z,15.80
2023-01-25T04:27:14.452Z,15.90
2023-01-25T04:29:42.645Z,15.90
2023-01-25T04:32:10.859Z,15.90
2023-01-25T04:34:39.073Z,15.90
2023-01-25T04:37:07.239Z,15.90
2023-01-25T04:39:36.780Z,15.90
2023-01-25T04:42:05.211Z,15.90
2023-01-25T04:44:33.512Z,15.90
2023-01-25T04:47:01.777Z,15.90
2023-01-25T04:49:30.056Z,16.00
2023-01-25T04:51:58.226Z,16.00
2023-01-25T04:54:26.433Z,16.00
2023-01-25T04:56:56.087Z,16.00
2023-01-25T04:59:24.327Z,16.00
2023-01-25T05:01:52.548Z,16.00
2023-01-25T05:04:21.042Z,16.00
2023-01-25T05:06:49.294Z,16.10
2023-01-25T05:09:17.827Z,16.10
2023-01-25T05:11:46.000Z,16.10
2023-01-25T05:14:15.495Z,16.10
2023-01-25T05:16:43.839Z,16.10
2023-01-25T05:19:12.369Z,16.20
2023-01-25T05:21:58.016Z,16.20
2023-01-25T05:24:26.740Z,16.20
2023-01-25T05:27:06.260Z,16.20
2023-01-25T05:29:38.131Z,16.20
2023-01-25T05:32:08.312Z,16.20
2023-01-25T05:34:37.337Z,16.30
2023-01-25T05:37:06.643Z,16.30
2023-01-25T05:39:34.900Z,16.30
2023-01-25T05:42:03.329Z,16.30
2023-01-25T05:44:31.572Z,16.30
2023-01-25T05:47:01.186Z,16.30
2023-01-25T05:49:29.357Z,16.30
2023-01-25T05:51:57.570Z,16.30
2023-01-25T05:54:25.900Z,16.30
2023-01-25T05:56:54.032Z,16.40
2023-01-25T05:59:22.172Z,16.40
2023-01-25T06:01:50.371Z,16.40
2023-01-25T06:04:19.943Z,16.40
2023-01-25T06:06:48.188Z,16.40
2023-01-25T06:09:16.812Z,16.40
2023-01-25T06:11:46.080Z,16.40
2023-01-25T06:14:14.460Z,16.40
2023-01-25T06:16:42.844Z,16.40
2023-01-25T06:19:13.306Z,16.40
2023-01-25T06:21:42.887Z,16.40
2023-01-25T06:24:11.380Z,16.40
2023-01-25T06:26:39.616Z,16.40
2023-01-25T06:29:08.103Z,16.40
2023-01-25T06:31:36.384Z,16.40
2023-01-25T06:34:06.577Z,16.40
2023-01-25T06:36:35.456Z,16.40
2023-01-25T06:39:05.261Z,16.40
2023-01-25T06:41:33.394Z,16.40
2023-01-25T06:44:01.516Z,16.40
2023-01-25T06:46:29.840Z,16.40
2023-01-25T06:48:58.145Z,16.40
2023-01-25T06:51:26.344Z,16.40
2023-01-25T06:53:54.598Z,16.40
2023-01-25T06:56:24.900Z,16.40
2023-01-25T06:58:53.145Z,16.40
2023-01-25T07:01:26.994Z,16.40
2023-01-25T07:03:57.859Z,16.40
2023-01-25T07:06:26.810Z,16.40
2023-01-25T07:08:55.410Z,16.40
2023-01-25T07:11:25.082Z,16.40
2023-01-25T07:13:53.146Z,16.40
2023-01-25T07:16:21.937Z,16.40
2023-01-25T07:18:50.606Z,16.40
2023-01-25T07:21:21.417Z,16.50
2023-01-25T07:23:50.347Z,16.40
2023-01-25T07:26:19.952Z,16.40
2023-01-25T07:28:50.118Z,16.40
2023-01-25T07:31:20.015Z,16.50
2023-01-25T07:33:50.419Z,16.50
2023-01-25T07:36:19.365Z,16.50
2023-01-25T07:38:47.649Z,16.50
2023-01-25T07:41:16.567Z,16.50
2023-01-25T07:43:44.858Z,16.50
2023-01-25T07:46:15.696Z,16.50
2023-01-25T07:48:48.719Z,16.50
2023-01-25T07:51:23.703Z,16.50
2023-01-25T07:53:54.143Z,16.50
2023-01-25T07:56:24.419Z,16.50
2023-01-25T07:58:54.527Z,16.50
2023-01-25T08:01:26.345Z,16.50
2023-01-25T08:03:56.547Z,16.50
2023-01-25T08:06:30.635Z,16.50
2023-01-25T08:09:00.248Z,16.50
2023-01-25T08:11:30.800Z,16.50
2023-01-25T08:14:01.975Z,16.50
2023-01-25T08:16:32.074Z,16.50
2023-01-25T08:19:02.187Z,16.50
2023-01-25T08:21:32.569Z,16.50
2023-01-25T08:24:02.133Z,16.50
2023-01-25T08:26:31.613Z,16.50
2023-01-25T08:29:00.185Z,16.50
2023-01-25T08:31:30.340Z,16.50
2023-01-25T08:34:00.970Z,16.50
2023-01-25T08:36:29.683Z,16.50
2023-01-25T08:38:59.766Z,16.50
2023-01-25T08:41:29.820Z,16.50
2023-01-25T08:43:58.729Z,16.50
2023-01-25T08:46:31.949Z,16.60
2023-01-25T08:49:03.019Z,16.60
2023-01-25T08:51:32.539Z,16.60
2023-01-25T08:54:04.468Z,16.70
2023-01-25T08:56:32.734Z,16.70
2023-01-25T08:59:00.948Z,16.70
2023-01-25T09:01:29.221Z,16.70
2023-01-25T09:03:57.465Z,16.80
2023-01-25T09:06:27.127Z,16.80
2023-01-25T09:08:55.395Z,16.80
2023-01-25T09:11:24.366Z,16.90
2023-01-25T09:13:52.557Z,16.90
2023-01-25T09:16:29.091Z,16.90
2023-01-25T09:18:59.107Z,17.00
2023-01-25T09:21:29.338Z,17.00
2023-01-25T09:24:05.920Z,17.00
2023-01-25T09:26:36.381Z,17.10
2023-01-25T09:29:05.183Z,17.10
2023-01-25T09:31:33.398Z,17.10
2023-01-25T09:34:01.692Z,17.20
2023-01-25T09:36:31.300Z,17.20
2023-01-25T09:39:00.040Z,17.20
2023-01-25T09:41:45.789Z,17.20
2023-01-25T09:44:33.008Z,17.30
2023-01-25T09:47:05.959Z,17.30
2023-01-25T09:49:46.921Z,17.30
2023-01-25T09:52:56.807Z,17.40
2023-01-25T09:55:28.268Z,17.40
2023-01-25T09:58:00.393Z,17.40
2023-01-25T10:00:34.064Z,17.40
2023-01-25T10:03:12.331Z,17.40
2023-01-25T10:05:46.552Z,17.40
2023-01-25T10:08:23.675Z,17.50
2023-01-25T10:10:57.242Z,17.50
2023-01-25T10:13:31.770Z,17.50
2023-01-25T10:16:09.886Z,17.50
2023-01-25T10:18:50.234Z,17.50
2023-01-25T10:21:22.751Z,17.60
2023-01-25T10:24:09.778Z,17.60
2023-01-25T10:26:41.903Z,17.60
2023-01-25T10:29:16.760Z,17.60
2023-01-25T10:31:49.197Z,17.60
2023-01-25T10:34:20.782Z,17.70
2023-01-25T10:36:54.890Z,17.70
2023-01-25T10:39:25.077Z,17.70
2023-01-25T10:41:57.249Z,17.70
2023-01-25T10:44:28.862Z,17.80
2023-01-25T10:47:07.227Z,17.70
2023-01-25T10:49:42.792Z,17.80
2023-01-25T10:52:16.376Z,17.80
2023-01-25T10:54:46.462Z,17.80
2023-01-25T10:57:19.573Z,17.80
2023-01-25T10:59:50.158Z,17.80
2023-01-25T11:02:41.767Z,17.80
2023-01-25T11:05:28.001Z,17.80
2023-01-25T11:07:57.033Z,17.90
2023-01-25T11:10:34.681Z,17.90
2023-01-25T11:13:20.975Z,17.90
2023-01-25T11:15:52.883Z,17.90
2023-01-25T11:18:25.258Z,18.00
2023-01-25T11:21:07.610Z,18.00
2023-01-25T11:23:36.078Z,18.00
2023-01-25T11:26:16.003Z,18.00
2023-01-25T11:28:45.586Z,18.00
2023-01-25T11:31:15.858Z,18.00
2023-01-25T11:33:44.480Z,18.10
2023-01-25T11:36:30.049Z,18.10
2023-01-25T11:39:14.017Z,18.10
2023-01-25T11:42:03.615Z,18.10
2023-01-25T11:44:57.929Z,18.10
2023-01-25T11:47:40.110Z,18.10
2023-01-25T11:50:16.279Z,18.10
2023-01-25T11:53:01.608Z,18.10
2023-01-25T11:55:35.544Z,18.10
2023-01-25T11:58:18.411Z,18.10
2023-01-25T12:00:59.478Z,18.10
2023-01-25T12:03:51.524Z,18.10
2023-01-25T12:06:28.163Z,18.10
2023-01-25T12:09:22.522Z,18.10
2023-01-25T12:12:04.612Z,18.20
2023-01-25T12:14:49.758Z,18.20
2023-01-25T12:17:29.554Z,18.20
2023-01-25T12:20:11.915Z,18.20
2023-01-25T12:22:59.250Z,18.20
2023-01-25T12:25:33.755Z,18.20
2023-01-25T12:28:12.840Z,18.20
2023-01-25T12:30:52.523Z,18.20
2023-01-25T12:33:25.208Z,18.20
2023-01-25T12:36:00.633Z,18.20
2023-01-25T12:38:33.973Z,18.20
2023-01-25T12:41:08.389Z,18.20
2023-01-25T12:43:41.629Z,18.20
2023-01-25T12:46:16.508Z,18.20
2023-01-25T12:48:51.255Z,18.30
2023-01-25T12:51:21.611Z,18.30
2023-01-25T12:53:51.908Z,18.30
2023-01-25T12:56:32.719Z,18.30
2023-01-25T12:59:09.321Z,18.30
2023-01-25T13:01:47.179Z,18.30
2023-01-25T13:04:41.403Z,18.30
2023-01-25T13:07:17.383Z,18.30
2023-01-25T13:09:52.790Z,18.30
2023-01-25T13:12:21.272Z,18.30
2023-01-25T13:14:49.550Z,18.30
2023-01-25T13:17:30.514Z,18.30
2023-01-25T13:19:59.584Z,18.30
2023-01-25T13:23:01.732Z,18.30
2023-01-25T13:25:29.924Z,18.30
2023-01-25T13:28:34.519Z,18.30
2023-01-25T13:31:02.913Z,18.40
2023-01-25T13:33:37.014Z,18.40
2023-01-25T13:36:39.799Z,18.40
2023-01-25T13:39:37.678Z,18.40
2023-01-25T13:42:18.525Z,18.40
2023-01-25T13:44:51.633Z,18.40
2023-01-25T13:47:23.320Z,18.40
2023-01-25T13:49:59.134Z,18.40
2023-01-25T13:52:31.157Z,18.40
2023-01-25T13:55:00.553Z,18.40
2023-01-25T13:57:30.370Z,18.40
2023-01-25T14:00:10.706Z,18.40
2023-01-25T14:02:40.983Z,18.40
2023-01-25T14:05:20.156Z,18.40
2023-01-25T14:07:52.209Z,18.40
2023-01-25T14:10:24.237Z,18.50
2023-01-25T14:12:54.290Z,18.40
2023-01-25T14:15:25.304Z,18.50
2023-01-25T14:18:06.443Z,18.50
2023-01-25T14:20:36.103Z,18.50
2023-01-25T14:23:05.679Z,18.50
2023-01-25T14:25:34.934Z,18.50
2023-01-25T14:28:07.742Z,18.50
2023-01-25T14:30:37.681Z,18.50
2023-01-25T14:33:18.545Z,18.50
2023-01-25T14:35:55.423Z,18.50
2023-01-25T14:38:34.534Z,18.50
2023-01-25T14:41:08.802Z,18.50
2023-01-25T14:43:38.644Z,18.60
2023-01-25T14:46:24.530Z,18.60
2023-01-25T14:48:53.877Z,18.60
2023-01-25T14:51:28.846Z,18.50
2023-01-25T14:54:03.317Z,18.60
2023-01-25T14:56:36.121Z,18.60
2023-01-25T14:59:06.308Z,18.60
2023-01-25T15:01:40.648Z,18.60
2023-01-25T15:04:13.698Z,18.60
2023-01-25T15:06:48.947Z,18.60
2023-01-25T15:09:37.862Z,18.60
2023-01-25T15:12:24.950Z,18.60
2023-01-25T15:14:54.976Z,18.60
2023-01-25T15:17:45.697Z,18.60
2023-01-25T15:20:37.089Z,18.60
2023-01-25T15:23:23.151Z,18.60
2023-01-25T15:25:55.990Z,18.60
2023-01-25T15:28:25.727Z,18.60
2023-01-25T15:30:54.817Z,18.60
2023-01-25T15:33:25.481Z,18.60
2023-01-25T15:35:54.553Z,18.60
2023-01-25T15:38:25.143Z,18.60
2023-01-25T15:40:53.862Z,18.60
2023-01-25T15:43:22.131Z,18.60
2023-01-25T15:45:52.012Z,18.60
2023-01-25T15:48:24.136Z,18.60
2023-01-25T15:50:54.256Z,18.60
2023-01-25T15:53:24.462Z,18.60
2023-01-25T15:55:55.971Z,18.60
2023-01-25T15:58:27.816Z,18.60
2023-01-25T16:00:56.395Z,18.60
2023-01-25T16:03:24.634Z,18.60
2023-01-25T16:05:58.020Z,18.60
2023-01-25T16:08:28.303Z,18.60
2023-01-25T16:10:56.600Z,18.60
2023-01-25T16:13:25.192Z,18.70
2023-01-25T16:15:56.068Z,18.70
2023-01-25T16:18:24.256Z,18.70
2023-01-25T16:20:52.678Z,18.70
2023-01-25T16:23:20.906Z,18.70
2023-01-25T16:25:50.680Z,18.70
2023-01-25T16:28:18.999Z,18.70
2023-01-25T16:30:47.288Z,18.70
2023-01-25T16:33:15.714Z,18.70
2023-01-25T16:35:44.009Z,18.70
2023-01-25T16:38:13.167Z,18.70
2023-01-25T16:40:41.602Z,18.70
2023-01-25T16:43:11.222Z,18.70
2023-01-25T16:45:39.843Z,18.70
2023-01-25T16:48:08.530Z,18.70
2023-01-25T16:50:36.727Z,18.70
2023-01-25T16:53:05.060Z,18.70
2023-01-25T16:55:33.415Z,18.70
2023-01-25T16:58:01.792Z,18.70
2023-01-25T17:00:31.478Z,18.70
2023-01-25T17:03:00.145Z,18.70
2023-01-25T17:05:32.990Z,18.60
2023-01-25T17:08:01.313Z,18.70
2023-01-25T17:10:33.255Z,18.60
2023-01-25T17:13:01.470Z,18.60
2023-01-25T17:15:31.249Z,18.60
2023-01-25T17:17:59.525Z,18.60
2023-01-25T17:20:27.944Z,18.60
2023-01-25T17:22:56.091Z,18.50
2023-01-25T17:25:25.745Z,18.50
2023-01-25T17:27:54.113Z,18.50
2023-01-25T17:30:22.410Z,18.50
2023-01-25T17:32:52.116Z,18.50
2023-01-25T17:35:20.508Z,18.40
2023-01-25T17:37:48.719Z,18.40
2023-01-25T17:40:17.381Z,18.40
2023-01-25T17:42:45.773Z,18.40
2023-01-25T17:45:14.083Z,18.40
2023-01-25T17:47:42.310Z,18.40
2023-01-25T17:50:12.951Z,18.40
2023-01-25T17:52:41.435Z,18.30
2023-01-25T17:55:10.353Z,18.30
2023-01-25T17:57:38.686Z,18.30
2023-01-25T18:00:11.806Z,18.30
2023-01-25T18:02:40.473Z,18.30
2023-01-25T18:05:09.486Z,18.20
2023-01-25T18:07:39.271Z,18.20
2023-01-25T18:10:09.265Z,18.20
2023-01-25T18:12:38.470Z,18.20
2023-01-25T18:15:08.055Z,18.20
2023-01-25T18:17:38.816Z,18.20
2023-01-25T18:20:10.678Z,18.20
2023-01-25T18:22:41.706Z,18.20
2023-01-25T18:25:28.392Z,18.20
2023-01-25T18:27:56.866Z,18.20
2023-01-25T18:30:35.390Z,18.10
2023-01-25T18:33:03.882Z,18.10
2023-01-25T18:35:32.804Z,18.10
2023-01-25T18:38:02.861Z,18.10
2023-01-25T18:40:31.150Z,18.10
2023-01-25T18:42:59.500Z,18.10
2023-01-25T18:45:27.754Z,18.10
2023-01-25T18:47:56.180Z,18.10
2023-01-25T18:50:24.593Z,18.10
2023-01-25T18:52:53.722Z,18.10
2023-01-25T18:55:23.719Z,18.10
2023-01-25T18:57:52.206Z,18.10
2023-01-25T19:00:20.676Z,18.10
2023-01-25T19:02:48.921Z,18.10
2023-01-25T19:05:20.065Z,18.10
2023-01-25T19:07:48.346Z,18.10
2023-01-25T19:10:16.900Z,18.10
2023-01-25T19:12:46.574Z,18.10
2023-01-25T19:15:14.971Z,18.10
2023-01-25T19:17:43.285Z,18.10
2023-01-25T19:20:12.433Z,18.10
2023-01-25T19:22:41.265Z,18.10
2023-01-25T19:25:10.467Z,18.10
2023-01-25T19:27:39.001Z,18.10
2023-01-25T19:30:10.287Z,18.10
2023-01-25T19:32:38.657Z,18.10
2023-01-25T19:35:07.851Z,18.10
2023-01-25T19:37:36.300Z,18.10
2023-01-25T19:40:04.914Z,18.00
2023-01-25T19:42:33.181Z,18.00
2023-01-25T19:45:03.000Z,18.00
2023-01-25T19:47:33.417Z,18.10
2023-01-25T19:50:02.843Z,18.00
2023-01-25T19:52:31.093Z,18.00
2023-01-25T19:54:59.444Z,18.00
2023-01-25T19:57:27.778Z,18.00
2023-01-25T19:59:55.932Z,18.00
2023-01-25T20:02:24.225Z,18.00
2023-01-25T20:04:54.791Z,18.00
2023-01-25T20:07:23.465Z,18.00
2023-01-25T20:09:52.119Z,18.00
2023-01-25T20:12:20.394Z,17.90
2023-01-25T20:14:48.756Z,17.90
2023-01-25T20:17:17.006Z,17.90
2023-01-25T20:19:45.301Z,17.90
2023-01-25T20:22:15.067Z,17.90
2023-01-25T20:24:43.267Z,17.90
2023-01-25T20:27:11.684Z,17.90
2023-01-25T20:29:40.132Z,17.90
2023-01-25T20:32:09.690Z,17.90
2023-01-25T20:34:38.163Z,17.90
2023-01-25T20:37:06.409Z,17.90
2023-01-25T20:39:36.022Z,17.90
2023-01-25T20:42:04.280Z,17.80
2023-01-25T20:44:32.602Z,17.80
2023-01-25T20:47:00.954Z,17.80
2023-01-25T20:49:29.342Z,17.90
2023-01-25T20:51:57.595Z,17.80
2023-01-25T20:54:25.815Z,17.80
2023-01-25T20:56:55.437Z,17.80
2023-01-25T20:59:23.795Z,17.80
2023-01-25T21:01:52.147Z,17.80
2023-01-25T21:04:20.588Z,17.80
2023-01-25T21:06:48.754Z,17.80
2023-01-25T21:09:17.570Z,17.80
2023-01-25T21:11:45.873Z,17.70
2023-01-25T21:14:15.703Z,17.70
2023-01-25T21:16:43.841Z,17.70
2023-01-25T21:19:12.228Z,17.70
2023-01-25T21:21:40.492Z,17.70
2023-01-25T21:24:10.095Z,17.70
2023-01-25T21:26:38.599Z,17.70
2023-01-25T21:29:08.080Z,17.70
2023-01-25T21:31:39.126Z,17.70
2023-01-25T21:34:09.251Z,17.70
2023-01-25T21:36:37.686Z,17.70
2023-01-25T21:39:06.068Z,17.70
2023-01-25T21:41:34.997Z,17.70
2023-01-25T21:44:21.480Z,17.60
2023-01-25T21:49:56.653Z,17.70
2023-01-25T21:52:24.894Z,17.60
2023-01-25T21:54:53.328Z,17.60
2023-01-25T21:57:21.778Z,17.60
2023-01-25T21:59:51.920Z,17.60
2023-01-25T22:02:22.886Z,17.60
2023-01-25T22:04:51.149Z,17.60
2023-01-25T22:07:19.361Z,17.60
2023-01-25T22:09:49.490Z,17.60
2023-01-25T22:12:17.812Z,17.60
2023-01-25T22:14:46.183Z,17.60
2023-01-25T22:17:14.441Z,17.50
2023-01-25T22:19:44.152Z,17.60
2023-01-25T22:22:12.307Z,17.60
2023-01-25T22:24:40.630Z,17.60
2023-01-25T22:27:31.694Z,17.50
2023-01-25T22:29:59.951Z,17.50
2023-01-25T22:32:28.283Z,17.50
2023-01-25T22:34:57.908Z,17.50
2023-01-25T22:37:26.115Z,17.50
2023-01-25T22:39:58.427Z,17.50
2023-01-25T22:42:26.742Z,17.50
2023-01-25T22:44:55.035Z,17.50
2023-01-25T22:47:23.340Z,17.50
2023-01-25T22:49:51.743Z,17.50
2023-01-25T22:52:21.373Z,17.50
2023-01-25T22:54:51.023Z,17.50
2023-01-25T22:57:19.433Z,17.40
2023-01-25T22:59:47.763Z,17.40
2023-01-25T23:02:15.983Z,17.40
2023-01-25T23:04:44.282Z,17.40
2023-01-25T23:07:18.997Z,17.40
2023-01-25T23:09:51.642Z,17.40
2023-01-25T23:12:20.071Z,17.40
2023-01-25T23:14:51.591Z,17.40
2023-01-25T23:17:37.716Z,17.40
2023-01-25T23:20:07.384Z,17.40
2023-01-25T23:22:35.768Z,17.40
2023-01-25T23:25:06.263Z,17.40
2023-01-25T23:27:34.594Z,17.40
2023-01-25T23:30:02.990Z,17.40
2023-01-25T23:32:31.254Z,17.40
2023-01-25T23:34:59.596Z,17.30
2023-01-25T23:37:28.293Z,17.40
2023-01-25T23:39:56.730Z,17.30
2023-01-25T23:42:26.472Z,17.30
2023-01-25T23:44:54.901Z,17.30
2023-01-25T23:47:23.366Z,17.30
2023-01-25T23:49:51.699Z,17.30
2023-01-25T23:52:19.961Z,17.30
2023-01-25T23:54:48.198Z,17.30
2023-01-25T23:57:16.585Z,17.30
2023-01-25T23:59:46.139Z,17.30
